Terminal Aerodrome Forecast
Issued by NWS

Home | Current Version | Previous Version | Text Only | Print | Product List | Glossary On
Versions: 1 2 3 4 5 6 7 8 9 10 11 12 13 14 15 16 17 18
258
FTPA31 PHFO 290926 AAA
TAFHKO
TAF AMD
PHKO 290926Z 2909/3006 23012KT P6SM SCT020 BKN050
     FM291200 06005KT P6SM SCT025 SCT050
     FM292000 22012KT P6SM SCT030 BKN050=

USA.gov is the U.S. government's official web portal to all federal, state and local government web resources and services.